createdAt,value
2023-05-09T00:00:06.481Z,101096.28
2023-05-09T00:01:12.032Z,101103.09
2023-05-09T00:02:15.183Z,101093.38
2023-05-09T00:03:17.606Z,101093.63
2023-05-09T00:04:20.393Z,101091.91
2023-05-09T00:05:22.833Z,101095.75
2023-05-09T00:06:27.956Z,101094.91
2023-05-09T00:07:30.300Z,101091.53
2023-05-09T00:08:32.991Z,101090.72
2023-05-09T00:09:35.273Z,101085.44
2023-05-09T00:10:39.254Z,101087.56
2023-05-09T00:11:41.511Z,101095.84
2023-05-09T00:12:44.993Z,101084.00
2023-05-09T00:13:47.356Z,101098.84
2023-05-09T00:14:51.884Z,101087.19
2023-05-09T00:15:54.298Z,101085.28
2023-05-09T00:16:59.541Z,101088.25
2023-05-09T00:18:01.853Z,101079.41
2023-05-09T00:19:04.394Z,101093.19
2023-05-09T00:20:12.592Z,101095.31
2023-05-09T00:21:15.042Z,101095.56
2023-05-09T00:22:18.778Z,101089.22
2023-05-09T00:23:22.234Z,101087.28
2023-05-09T00:24:24.495Z,101086.66
2023-05-09T00:25:27.824Z,101088.00
2023-05-09T00:26:30.043Z,101080.56
2023-05-09T00:27:32.582Z,101081.88
2023-05-09T00:28:35.143Z,101084.63
2023-05-09T00:29:37.447Z,101083.16
2023-05-09T00:30:39.677Z,101090.59
2023-05-09T00:31:42.039Z,101089.75
2023-05-09T00:32:44.416Z,101088.69
2023-05-09T00:33:46.861Z,101092.50
2023-05-09T00:34:50.796Z,101081.72
2023-05-09T00:35:56.178Z,101092.97
2023-05-09T00:36:58.450Z,101080.25
2023-05-09T00:38:02.841Z,101084.94
2023-05-09T00:39:05.776Z,101082.41
2023-05-09T00:40:09.402Z,101076.88
2023-05-09T00:41:12.853Z,101080.75
2023-05-09T00:42:15.189Z,101085.38
2023-05-09T00:43:18.945Z,101080.94
2023-05-09T00:44:21.268Z,101088.16
2023-05-09T00:45:23.486Z,101089.22
2023-05-09T00:46:28.359Z,101092.22
2023-05-09T00:47:31.215Z,101083.34
2023-05-09T00:48:33.538Z,101083.34
2023-05-09T00:49:37.938Z,101083.34
2023-05-09T00:50:40.362Z,101086.31
2023-05-09T00:51:42.640Z,101088.00
2023-05-09T00:52:45.105Z,101086.31
2023-05-09T00:53:47.410Z,101078.91
2023-05-09T00:54:51.860Z,101082.72
2023-05-09T00:55:56.913Z,101079.31
2023-05-09T00:56:59.282Z,101080.16
2023-05-09T00:58:03.010Z,101081.03
2023-05-09T00:59:06.641Z,101079.53
2023-05-09T01:00:15.814Z,101079.78
2023-05-09T01:01:18.133Z,101073.44
2023-05-09T01:02:20.940Z,101067.56
2023-05-09T01:03:24.690Z,101070.31
2023-05-09T01:04:27.331Z,101065.63
2023-05-09T01:05:40.776Z,101066.72
2023-05-09T01:07:02.824Z,101059.53
2023-05-09T01:08:15.473Z,101059.97
2023-05-09T01:09:42.967Z,101060.81
2023-05-09T01:11:02.404Z,101058.31
2023-05-09T01:12:25.668Z,101060.44
2023-05-09T01:13:40.957Z,101048.78
2023-05-09T01:14:49.374Z,101054.31
2023-05-09T01:16:01.747Z,101056.22
2023-05-09T01:17:26.647Z,101058.97
2023-05-09T01:18:40.666Z,101053.72
2023-05-09T01:20:11.262Z,101059.66
2023-05-09T01:21:21.718Z,101050.81
2023-05-09T01:22:30.568Z,101050.19
2023-05-09T01:23:59.730Z,101059.31
2023-05-09T01:25:30.176Z,101050.41
2023-05-09T01:26:43.030Z,101043.84
2023-05-09T01:28:14.115Z,101046.59
2023-05-09T01:29:48.988Z,101043.22
2023-05-09T01:30:52.253Z,101044.31
2023-05-09T01:31:57.134Z,101047.06
2023-05-09T01:33:01.119Z,101037.94
2023-05-09T01:34:06.476Z,101042.84
2023-05-09T01:35:14.508Z,101047.50
2023-05-09T01:36:19.990Z,101036.72
2023-05-09T01:37:30.595Z,101035.91
2023-05-09T01:38:35.947Z,101041.41
2023-05-09T01:39:41.452Z,101042.72
2023-05-09T01:40:45.663Z,101030.84
2023-05-09T01:41:49.850Z,101037.19
2023-05-09T01:42:57.814Z,101030.84
2023-05-09T01:44:03.617Z,101038.25
2023-05-09T01:45:08.152Z,101038.50
2023-05-09T01:46:12.395Z,101035.75
2023-05-09T01:47:18.366Z,101039.56
2023-05-09T01:48:26.593Z,101033.19
2023-05-09T01:49:32.937Z,101030.69
2023-05-09T01:50:36.949Z,101036.19
2023-05-09T01:51:42.966Z,101036.66
2023-05-09T01:52:50.277Z,101025.66
2023-05-09T01:53:54.418Z,101034.97
2023-05-09T01:54:58.114Z,101033.28
2023-05-09T01:56:01.086Z,101027.19
2023-05-09T01:57:05.100Z,101037.13
2023-05-09T01:58:08.497Z,101029.06
2023-05-09T01:59:16.334Z,101024.66
2023-05-09T02:00:19.687Z,101026.56
2023-05-09T02:01:25.029Z,101031.22
2023-05-09T02:02:29.042Z,101028.72
2023-05-09T02:03:34.320Z,101036.97
2023-05-09T02:04:37.095Z,101030.84
2023-05-09T02:05:41.526Z,101023.63
2023-05-09T02:06:46.113Z,101037.41
2023-05-09T02:07:49.559Z,101031.91
2023-05-09T02:08:52.057Z,101026.38
2023-05-09T02:09:56.652Z,101032.75
2023-05-09T02:10:59.249Z,101032.13
2023-05-09T02:12:02.315Z,101031.31
2023-05-09T02:13:05.749Z,101028.97
2023-05-09T02:14:08.269Z,101026.47
2023-05-09T02:15:11.100Z,101033.91
2023-05-09T02:16:16.350Z,101026.47
2023-05-09T02:17:19.510Z,101027.53
2023-05-09T02:18:23.014Z,101026.69
2023-05-09T02:19:26.427Z,101025.00
2023-05-09T02:20:29.294Z,101030.28
2023-05-09T02:21:32.117Z,101026.06
2023-05-09T02:22:34.400Z,101030.13
2023-05-09T02:23:38.682Z,101030.75
2023-05-09T02:24:41.551Z,101037.31
2023-05-09T02:25:44.482Z,101031.22
2023-05-09T02:26:47.993Z,101034.78
2023-05-09T02:27:52.254Z,101037.78
2023-05-09T02:28:56.847Z,101032.50
2023-05-09T02:30:02.917Z,101036.31
2023-05-09T02:31:07.242Z,101029.97
2023-05-09T02:32:14.027Z,101029.13
2023-05-09T02:33:17.484Z,101025.75
2023-05-09T02:34:20.786Z,101030.44
2023-05-09T02:35:25.240Z,101012.47
2023-05-09T02:36:28.282Z,101022.63
2023-05-09T02:37:31.282Z,101013.53
2023-05-09T02:38:37.258Z,101011.00
2023-05-09T02:39:40.338Z,101012.06
2023-05-09T02:40:44.719Z,101012.06
2023-05-09T02:41:50.072Z,101006.78
2023-05-09T02:42:52.340Z,101011.66
2023-05-09T02:43:55.208Z,101017.16
2023-05-09T02:44:57.772Z,101010.22
2023-05-09T02:46:00.524Z,101011.31
2023-05-09T02:47:04.373Z,101017.63
2023-05-09T02:48:08.766Z,101020.63
2023-05-09T02:49:22.825Z,101017.25
2023-05-09T02:50:33.530Z,101012.84
2023-05-09T02:51:36.520Z,101014.72
2023-05-09T02:52:38.790Z,101011.38
2023-05-09T02:53:41.049Z,101013.25
2023-05-09T02:54:43.501Z,101016.00
2023-05-09T02:55:45.855Z,101010.97
2023-05-09T02:56:48.177Z,101014.56
2023-05-09T02:57:56.219Z,101017.53
2023-05-09T02:59:07.936Z,101015.84
2023-05-09T03:00:10.667Z,101013.09
2023-05-09T03:01:14.423Z,101021.56
2023-05-09T03:02:19.030Z,101014.38
2023-05-09T03:03:23.558Z,101016.53
2023-05-09T03:04:26.528Z,101026.69
2023-05-09T03:05:29.146Z,101017.81
2023-05-09T03:06:31.940Z,101020.56
2023-05-09T03:07:34.461Z,101019.72
2023-05-09T03:08:37.493Z,101012.75
2023-05-09T03:09:41.484Z,101020.19
2023-05-09T03:10:44.355Z,101024.84
2023-05-09T03:11:46.741Z,101017.66
2023-05-09T03:12:51.008Z,101002.44
2023-05-09T03:13:53.356Z,101015.34
2023-05-09T03:14:55.618Z,101018.31
2023-05-09T03:15:58.314Z,101010.31
2023-05-09T03:17:00.631Z,101003.97
2023-05-09T03:18:10.288Z,101011.59
2023-05-09T03:19:12.625Z,101010.75
2023-05-09T03:20:15.931Z,101012.66
2023-05-09T03:21:18.226Z,101005.47
2023-05-09T03:22:20.508Z,101008.22
2023-05-09T03:23:30.213Z,101007.59
2023-05-09T03:24:32.475Z,101009.50
2023-05-09T03:25:34.724Z,101002.13
2023-05-09T03:26:37.161Z,101001.25
2023-05-09T03:27:39.838Z,100996.84
2023-05-09T03:28:47.068Z,100998.72
2023-05-09T03:29:54.027Z,100996.22
2023-05-09T03:30:56.436Z,100997.28
2023-05-09T03:32:01.879Z,100998.31
2023-05-09T03:33:06.460Z,100992.22
2023-05-09T03:34:13.245Z,100994.16
2023-05-09T03:35:15.758Z,100990.78
2023-05-09T03:36:19.091Z,100994.59
2023-05-09T03:37:21.945Z,100990.13
2023-05-09T03:38:24.620Z,100990.38
2023-05-09T03:39:26.971Z,100998.38
2023-05-09T03:40:32.095Z,100995.25
2023-05-09T03:41:42.049Z,100989.97
2023-05-09T03:42:44.329Z,100987.22
2023-05-09T03:43:47.918Z,100985.56
2023-05-09T03:44:50.965Z,100989.97
2023-05-09T03:45:56.573Z,100990.19
2023-05-09T03:46:59.777Z,100986.63
2023-05-09T03:48:05.580Z,100994.88
2023-05-09T03:49:07.921Z,100984.94
2023-05-09T03:50:13.875Z,100983.00
2023-05-09T03:51:16.437Z,100983.25
2023-05-09T03:52:19.944Z,100989.78
2023-05-09T03:53:23.384Z,100981.78
2023-05-09T03:54:27.454Z,100988.13
2023-05-09T03:55:30.605Z,100981.56
2023-05-09T03:56:33.246Z,100984.53
2023-05-09T03:57:36.203Z,100987.03
2023-05-09T03:58:39.216Z,100989.19
2023-05-09T03:59:43.169Z,100985.59
2023-05-09T04:00:46.380Z,100982.63
2023-05-09T04:01:55.193Z,100991.94
2023-05-09T04:03:00.547Z,100985.59
2023-05-09T04:04:11.773Z,100990.25
2023-05-09T04:05:16.763Z,100986.69
2023-05-09T04:06:19.846Z,100989.41
2023-05-09T04:07:22.324Z,100991.94
2023-05-09T04:08:24.972Z,100990.25
2023-05-09T04:09:28.409Z,100987.50
2023-05-09T04:10:31.910Z,100987.50
2023-05-09T04:11:34.354Z,100983.94
2023-05-09T04:12:37.235Z,100984.75
2023-05-09T04:13:40.012Z,100990.25
2023-05-09T04:14:55.287Z,100999.31
2023-05-09T04:16:00.334Z,100987.50
2023-05-09T04:17:05.174Z,100990.25
2023-05-09T04:18:07.577Z,100997.44
2023-05-09T04:19:09.949Z,100993.63
2023-05-09T04:20:12.790Z,100990.03
2023-05-09T04:21:15.640Z,100988.13
2023-05-09T04:22:19.801Z,100981.56
2023-05-09T04:23:22.111Z,100983.88
2023-05-09T04:24:24.490Z,100981.94
2023-05-09T04:25:26.986Z,100985.09
2023-05-09T04:26:30.407Z,100988.25
2023-05-09T04:27:33.896Z,100982.28
2023-05-09T04:28:36.362Z,100983.75
2023-05-09T04:29:39.169Z,100984.16
2023-05-09T04:30:42.784Z,100985.38
2023-05-09T04:31:46.104Z,100987.47
2023-05-09T04:32:50.072Z,100974.72
2023-05-09T04:33:53.631Z,100982.28
2023-05-09T04:34:56.932Z,100984.13
2023-05-09T04:36:03.702Z,100984.06
2023-05-09T04:37:06.050Z,100973.22
2023-05-09T04:38:08.669Z,100974.84
2023-05-09T04:39:11.514Z,100980.28
2023-05-09T04:40:17.973Z,100977.69
2023-05-09T04:41:27.936Z,100976.31
2023-05-09T04:42:30.195Z,100975.41
2023-05-09T04:43:33.506Z,100977.00
2023-05-09T04:44:36.286Z,100969.53
2023-05-09T04:45:39.053Z,100968.56
2023-05-09T04:46:42.271Z,100971.28
2023-05-09T04:47:44.575Z,100966.75
2023-05-09T04:48:46.877Z,100960.91
2023-05-09T04:49:49.142Z,100964.66
2023-05-09T04:50:52.376Z,100970.06
2023-05-09T04:51:54.687Z,100972.28
2023-05-09T04:52:56.997Z,100965.84
2023-05-09T04:53:59.501Z,100961.69
2023-05-09T04:55:07.198Z,100959.69
2023-05-09T04:56:13.853Z,100971.19
2023-05-09T04:57:18.590Z,100965.34
2023-05-09T04:58:26.828Z,100967.16
2023-05-09T04:59:30.645Z,100968.72
2023-05-09T05:00:33.003Z,100965.25
2023-05-09T05:01:35.319Z,100969.59
2023-05-09T05:02:37.594Z,100968.41
2023-05-09T05:03:40.366Z,100967.22
2023-05-09T05:04:42.692Z,100962.16
2023-05-09T05:05:45.322Z,100954.59
2023-05-09T05:06:47.700Z,100961.06
2023-05-09T05:07:49.947Z,100960.72
2023-05-09T05:08:57.553Z,100963.94
2023-05-09T05:09:59.795Z,100961.91
2023-05-09T05:11:02.057Z,100953.22
2023-05-09T05:12:09.274Z,100957.00
2023-05-09T05:13:11.951Z,100961.03
2023-05-09T05:14:18.858Z,100951.88
2023-05-09T05:15:21.323Z,100955.09
2023-05-09T05:16:24.063Z,100956.63
2023-05-09T05:17:29.687Z,100950.47
2023-05-09T05:18:33.711Z,100955.84
2023-05-09T05:19:36.336Z,100958.72
2023-05-09T05:20:41.978Z,100956.38
2023-05-09T05:21:44.249Z,100949.03
2023-05-09T05:22:46.889Z,100949.69
2023-05-09T05:23:49.446Z,100950.03
2023-05-09T05:24:52.457Z,100949.88
2023-05-09T05:25:55.024Z,100948.88
2023-05-09T05:26:58.699Z,100945.94
2023-05-09T05:28:01.380Z,100955.16
2023-05-09T05:29:03.767Z,100957.78
2023-05-09T05:30:06.790Z,100951.22
2023-05-09T05:31:09.281Z,100951.13
2023-05-09T05:32:11.972Z,100953.44
2023-05-09T05:33:14.277Z,100938.59
2023-05-09T05:34:16.948Z,100947.28
2023-05-09T05:35:23.501Z,100940.50
2023-05-09T05:36:26.762Z,100951.97
2023-05-09T05:37:29.147Z,100955.16
2023-05-09T05:38:31.557Z,100950.50
2023-05-09T05:39:37.824Z,100947.53
2023-05-09T05:40:40.227Z,100948.78
2023-05-09T05:41:43.670Z,100962.41
2023-05-09T05:42:46.880Z,100946.72
2023-05-09T05:43:53.425Z,100941.25
2023-05-09T05:44:56.470Z,100951.59
2023-05-09T05:45:58.747Z,100955.03
2023-05-09T05:47:02.738Z,100942.91
2023-05-09T05:48:05.527Z,100941.06
2023-05-09T05:49:08.160Z,100935.84
2023-05-09T05:50:14.224Z,100947.53
2023-05-09T05:51:16.497Z,100951.22
2023-05-09T05:52:19.452Z,100956.53
2023-05-09T05:53:21.705Z,100947.69
2023-05-09T05:54:26.141Z,100935.56
2023-05-09T05:55:29.964Z,100943.66
2023-05-09T05:56:32.735Z,100946.75
2023-05-09T05:57:35.550Z,100934.84
2023-05-09T05:58:37.922Z,100934.63
2023-05-09T05:59:42.276Z,100934.16
2023-05-09T06:00:44.887Z,100929.47
2023-05-09T06:01:47.205Z,100927.84
2023-05-09T06:02:50.108Z,100933.16
2023-05-09T06:04:03.931Z,100926.28
2023-05-09T06:05:08.972Z,100920.50
2023-05-09T06:06:11.398Z,100914.44
2023-05-09T06:07:14.360Z,100924.72
2023-05-09T06:08:17.002Z,100915.63
2023-05-09T06:09:19.502Z,100915.06
2023-05-09T06:10:29.472Z,100920.66
2023-05-09T06:11:31.724Z,100918.50
2023-05-09T06:12:34.680Z,100908.50
2023-05-09T06:13:38.878Z,100912.41
2023-05-09T06:14:42.034Z,100916.91
2023-05-09T06:15:44.544Z,100911.66
2023-05-09T06:16:46.942Z,100911.94
2023-05-09T06:17:49.854Z,100904.22
2023-05-09T06:18:55.770Z,100913.38
2023-05-09T06:19:58.785Z,100899.22
2023-05-09T06:21:02.141Z,100900.66
2023-05-09T06:22:04.441Z,100905.69
2023-05-09T06:23:07.043Z,100899.03
2023-05-09T06:24:14.412Z,100903.78
2023-05-09T06:25:27.091Z,100900.44
2023-05-09T06:26:29.904Z,100895.50
2023-05-09T06:27:32.290Z,100901.63
2023-05-09T06:28:34.569Z,100905.50
2023-05-09T06:29:36.982Z,100898.84
2023-05-09T06:30:39.236Z,100886.03
2023-05-09T06:31:41.510Z,100899.41
2023-05-09T06:32:43.875Z,100908.31
2023-05-09T06:33:46.205Z,100901.63
2023-05-09T06:34:48.559Z,100909.97
2023-05-09T06:35:50.939Z,100888.53
2023-05-09T06:36:53.215Z,100899.13
2023-05-09T06:37:55.536Z,100888.81
2023-05-09T06:38:59.328Z,100898.81
2023-05-09T06:40:02.252Z,100886.56
2023-05-09T06:41:04.646Z,100886.53
2023-05-09T06:42:07.041Z,100899.38
2023-05-09T06:43:13.467Z,100888.50
2023-05-09T06:44:15.710Z,100885.41
2023-05-09T06:45:18.379Z,100886.22
2023-05-09T06:46:20.891Z,100879.53
2023-05-09T06:47:23.336Z,100880.34
2023-05-09T06:48:25.854Z,100886.47
2023-05-09T06:49:28.169Z,100871.69
2023-05-09T06:50:32.770Z,100884.19
2023-05-09T06:51:35.560Z,100885.84
2023-05-09T06:52:37.910Z,100874.97
2023-05-09T06:53:40.221Z,100870.22
2023-05-09T06:54:42.556Z,100875.75
2023-05-09T06:55:45.394Z,100868.19
2023-05-09T06:56:48.009Z,100874.03
2023-05-09T06:57:50.280Z,100875.41
2023-05-09T06:58:52.714Z,100861.72
2023-05-09T06:59:54.956Z,100860.28
2023-05-09T07:00:57.480Z,100860.25
2023-05-09T07:01:59.884Z,100855.50
2023-05-09T07:03:02.600Z,100855.22
2023-05-09T07:04:05.100Z,100857.13
2023-05-09T07:05:09.814Z,100849.84
2023-05-09T07:06:12.081Z,100843.09
2023-05-09T07:07:14.383Z,100845.84
2023-05-09T07:08:16.627Z,100845.81
2023-05-09T07:09:20.774Z,100850.25
2023-05-09T07:10:23.110Z,100846.91
2023-05-09T07:11:25.782Z,100834.94
2023-05-09T07:12:28.398Z,100844.72
2023-05-09T07:13:30.901Z,100852.81
2023-05-09T07:14:33.294Z,100839.66
2023-05-09T07:15:42.278Z,100835.19
2023-05-09T07:16:46.785Z,100833.22
2023-05-09T07:17:49.148Z,100838.50
2023-05-09T07:18:51.423Z,100839.06
2023-05-09T07:19:53.680Z,100849.31
2023-05-09T07:20:55.987Z,100844.03
2023-05-09T07:21:58.349Z,100832.88
2023-05-09T07:23:00.772Z,100850.47
2023-05-09T07:24:03.723Z,100839.53
2023-05-09T07:25:08.938Z,100845.97
2023-05-09T07:26:11.243Z,100835.63
2023-05-09T07:27:15.015Z,100841.75
2023-05-09T07:28:17.334Z,100836.72
2023-05-09T07:29:20.427Z,100836.13
2023-05-09T07:30:22.682Z,100854.56
2023-05-09T07:31:24.976Z,100826.66
2023-05-09T07:32:29.060Z,100816.31
2023-05-09T07:33:31.300Z,100833.31
2023-05-09T07:34:33.807Z,100818.44
2023-05-09T07:35:36.422Z,100835.44
2023-05-09T07:38:01.290Z,100821.13
2023-05-09T07:39:05.099Z,100818.84
2023-05-09T07:40:08.108Z,100812.41
2023-05-09T07:41:10.686Z,100812.34
2023-05-09T07:42:13.105Z,100815.38
2023-05-09T07:43:15.673Z,100805.88
2023-05-09T07:44:17.941Z,100805.56
2023-05-09T07:45:22.769Z,100821.13
2023-05-09T07:46:26.228Z,100806.25
2023-05-09T07:47:28.685Z,100814.38
2023-05-09T07:48:30.995Z,100804.53
2023-05-09T07:49:33.240Z,100795.63
2023-05-09T07:50:35.841Z,100801.72
2023-05-09T07:51:38.198Z,100814.00
2023-05-09T07:52:40.535Z,100812.03
2023-05-09T07:53:42.816Z,100799.72
2023-05-09T07:54:45.220Z,100788.78
2023-05-09T07:55:50.376Z,100791.28
2023-05-09T07:56:53.155Z,100787.94
2023-05-09T07:57:55.539Z,100789.69
2023-05-09T07:58:57.784Z,100789.38
2023-05-09T08:00:00.051Z,100785.53
2023-05-09T08:01:02.365Z,100785.22
2023-05-09T08:02:04.742Z,100786.66
2023-05-09T08:03:07.252Z,100801.72
2023-05-09T08:04:10.147Z,100790.28
2023-05-09T08:05:14.013Z,100788.63
2023-05-09T08:06:16.525Z,100785.53
2023-05-09T08:07:18.754Z,100785.53
2023-05-09T08:08:21.075Z,100794.50
2023-05-09T08:09:23.367Z,100793.66
2023-05-09T08:10:26.967Z,100795.09
2023-05-09T08:11:29.303Z,100791.47
2023-05-09T08:12:31.666Z,100787.00
2023-05-09T08:13:34.354Z,100786.44
2023-05-09T08:14:36.748Z,100784.47
2023-05-09T08:15:39.089Z,100777.75
2023-05-09T08:16:43.488Z,100775.47
2023-05-09T08:17:45.842Z,100790.28
2023-05-09T08:18:48.198Z,100778.56
2023-05-09T08:19:50.606Z,100769.66
2023-05-09T08:20:53.117Z,100785.28
2023-05-09T08:21:55.968Z,100768.81
2023-05-09T08:22:58.265Z,100773.81
2023-05-09T08:24:01.963Z,100798.38
2023-05-09T08:25:04.403Z,100770.44
2023-05-09T08:26:06.708Z,100775.47
2023-05-09T08:27:08.912Z,100768.44
2023-05-09T08:28:11.170Z,100763.09
2023-05-09T08:29:13.406Z,100770.06
2023-05-09T08:30:15.775Z,100768.94
2023-05-09T08:31:18.133Z,100765.22
2023-05-09T08:32:20.438Z,100764.09
2023-05-09T08:33:22.927Z,100761.00
2023-05-09T08:34:25.312Z,100751.78
2023-05-09T08:35:27.761Z,100753.97
2023-05-09T08:36:30.920Z,100769.91
2023-05-09T08:37:36.285Z,100750.59
2023-05-09T08:38:40.780Z,100763.72
2023-05-09T08:39:43.492Z,100746.06
2023-05-09T08:40:45.834Z,100755.50
2023-05-09T08:41:48.345Z,100756.31
2023-05-09T08:42:51.100Z,100771.72
2023-05-09T08:43:53.995Z,100743.19
2023-05-09T08:44:56.555Z,100754.88
2023-05-09T08:46:01.439Z,100753.25
2023-05-09T08:47:04.795Z,100737.84
2023-05-09T08:48:08.295Z,100737.22
2023-05-09T08:49:11.441Z,100748.31
2023-05-09T08:50:15.789Z,100738.28
2023-05-09T08:51:18.489Z,100743.03
2023-05-09T08:52:21.698Z,100738.28
2023-05-09T08:53:23.997Z,100750.00
2023-05-09T08:54:26.561Z,100741.59
2023-05-09T08:55:29.312Z,100737.66
2023-05-09T08:56:32.127Z,100736.53
2023-05-09T08:57:37.532Z,100733.81
2023-05-09T08:58:40.482Z,100739.94
2023-05-09T08:59:43.198Z,100723.16
2023-05-09T09:00:47.346Z,100716.13
2023-05-09T09:01:50.428Z,100723.41
2023-05-09T09:02:54.213Z,100731.72
2023-05-09T09:03:56.694Z,100732.53
2023-05-09T09:04:59.335Z,100724.97
2023-05-09T09:06:02.372Z,100720.13
2023-05-09T09:07:06.519Z,100728.22
2023-05-09T09:08:10.159Z,100722.88
2023-05-09T09:09:14.030Z,100712.75
2023-05-09T09:10:17.149Z,100716.59
2023-05-09T09:11:20.119Z,100715.16
2023-05-09T09:12:25.494Z,100738.66
2023-05-09T09:13:28.867Z,100739.50
2023-05-09T09:14:32.713Z,100712.34
2023-05-09T09:15:37.714Z,100717.03
2023-05-09T09:16:41.817Z,100718.38
2023-05-09T09:18:52.369Z,100732.28
2023-05-09T09:20:02.727Z,100728.34
2023-05-09T09:21:10.537Z,100726.06
2023-05-09T09:22:18.603Z,100716.47
2023-05-09T09:23:24.983Z,100738.22
2023-05-09T09:24:27.270Z,100728.78
2023-05-09T09:25:29.589Z,100725.34
2023-05-09T09:26:32.034Z,100724.75
2023-05-09T09:27:35.697Z,100733.06
2023-05-09T09:28:38.017Z,100709.00
2023-05-09T09:29:40.328Z,100718.75
2023-05-09T09:30:48.511Z,100728.19
2023-05-09T09:31:55.255Z,100721.56
2023-05-09T09:32:59.429Z,100720.94
2023-05-09T09:34:02.990Z,100715.03
2023-05-09T09:35:09.584Z,100718.34
2023-05-09T09:36:11.908Z,100715.25
2023-05-09T09:37:23.302Z,100711.00
2023-05-09T09:38:25.556Z,100716.28
2023-05-09T09:39:27.816Z,100711.81
2023-05-09T09:40:30.023Z,100705.94
2023-05-09T09:41:34.496Z,100707.88
2023-05-09T09:42:49.017Z,100709.56
2023-05-09T09:43:51.413Z,100705.50
2023-05-09T09:45:02.445Z,100709.97
2023-05-09T09:46:05.686Z,100703.84
2023-05-09T09:47:10.888Z,100700.84
2023-05-09T09:48:13.168Z,100702.56
2023-05-09T09:49:17.338Z,100696.16
2023-05-09T09:50:23.488Z,100696.97
2023-05-09T09:51:29.189Z,100704.25
2023-05-09T09:52:31.869Z,100722.69
2023-05-09T09:53:39.975Z,100700.09
2023-05-09T09:54:42.380Z,100691.91
2023-05-09T09:55:52.281Z,100690.03
2023-05-09T09:56:55.380Z,100681.94
2023-05-09T09:57:57.728Z,100701.53
2023-05-09T09:59:11.671Z,100700.41
2023-05-09T10:00:18.939Z,100689.22
2023-05-09T10:01:21.420Z,100682.56
2023-05-09T10:02:24.915Z,100696.56
2023-05-09T10:03:35.965Z,100690.97
2023-05-09T10:04:39.543Z,100686.19
2023-05-09T10:05:42.243Z,100696.03
2023-05-09T10:06:55.339Z,100687.63
2023-05-09T10:08:03.960Z,100694.97
2023-05-09T10:09:06.982Z,100695.31
2023-05-09T10:10:09.836Z,100690.00
2023-05-09T10:11:12.506Z,100686.06
2023-05-09T10:12:18.127Z,100682.13
2023-05-09T10:13:21.363Z,100677.88
2023-05-09T10:14:26.143Z,100684.84
2023-05-09T10:15:41.436Z,100680.59
2023-05-09T10:16:56.187Z,100683.38
2023-05-09T10:18:01.364Z,100673.03
2023-05-09T10:19:04.217Z,100676.97
2023-05-09T10:20:07.951Z,100678.31
2023-05-09T10:21:15.568Z,100675.84
2023-05-09T10:22:19.821Z,100662.88
2023-05-09T10:23:23.362Z,100660.59
2023-05-09T10:24:37.984Z,100662.25
2023-05-09T10:25:49.642Z,100662.25
2023-05-09T10:26:57.106Z,100659.16
2023-05-09T10:28:02.000Z,100660.81
2023-05-09T10:29:09.415Z,100666.63
2023-05-09T10:30:32.972Z,100666.00
2023-05-09T10:31:39.737Z,100660.22
2023-05-09T10:32:54.089Z,100661.34
2023-05-09T10:33:56.715Z,100665.81
2023-05-09T10:35:05.192Z,100650.97
2023-05-09T10:36:08.415Z,100650.47
2023-05-09T10:37:11.259Z,100651.06
2023-05-09T10:38:14.183Z,100662.25
2023-05-09T10:39:17.679Z,100676.88
2023-05-09T10:40:20.695Z,100670.25
2023-05-09T10:41:23.893Z,100641.72
2023-05-09T10:42:26.901Z,100652.41
2023-05-09T10:44:33.225Z,100650.53
2023-05-09T10:45:35.889Z,100664.31
2023-05-09T10:46:38.639Z,100640.88
2023-05-09T10:47:42.698Z,100650.72
2023-05-09T10:48:45.789Z,100629.47
2023-05-09T10:49:49.494Z,100633.94
2023-05-09T10:50:52.801Z,100627.00
2023-05-09T10:51:55.533Z,100631.25
2023-05-09T10:53:14.316Z,100631.53
2023-05-09T10:54:30.710Z,100625.63
2023-05-09T10:55:55.685Z,100619.81
2023-05-09T10:56:58.181Z,100627.09
2023-05-09T10:58:18.273Z,100615.16
2023-05-09T10:59:38.075Z,100615.16
2023-05-09T11:00:43.589Z,100618.28
2023-05-09T11:01:46.735Z,100612.16
2023-05-09T11:03:15.442Z,100604.03
2023-05-09T11:04:17.788Z,100605.19
2023-05-09T11:05:20.543Z,100595.13
2023-05-09T11:06:56.475Z,100602.69
2023-05-09T11:08:29.903Z,100595.22
2023-05-09T11:09:41.587Z,100612.22
2023-05-09T11:10:44.135Z,100594.31
2023-05-09T11:11:53.530Z,100597.59
2023-05-09T11:13:00.524Z,100592.56
2023-05-09T11:14:02.913Z,100598.72
2023-05-09T11:15:06.699Z,100589.16
2023-05-09T11:16:11.965Z,100585.00
2023-05-09T11:17:23.427Z,100590.00
2023-05-09T11:18:25.925Z,100586.34
2023-05-09T11:19:46.742Z,100581.09
2023-05-09T11:20:51.610Z,100574.94
2023-05-09T11:22:02.665Z,100584.47
2023-05-09T11:23:06.398Z,100576.69
2023-05-09T11:24:18.955Z,100570.59
2023-05-09T11:25:33.130Z,100575.31
2023-05-09T11:26:35.796Z,100580.63
2023-05-09T11:27:45.527Z,100566.94
2023-05-09T11:28:53.895Z,100568.69
2023-05-09T11:29:58.301Z,100557.50
2023-05-09T11:31:14.965Z,100553.38
2023-05-09T11:32:17.776Z,100556.69
2023-05-09T11:33:39.444Z,100552.56
2023-05-09T11:34:44.825Z,100553.38
2023-05-09T11:35:47.503Z,100544.47
2023-05-09T11:36:49.875Z,100541.16
2023-05-09T11:38:05.820Z,100541.69
2023-05-09T11:39:10.869Z,100531.94
2023-05-09T11:40:14.914Z,100540.34
2023-05-09T11:41:17.593Z,100539.16
2023-05-09T11:42:21.081Z,100533.91
2023-05-09T11:43:23.721Z,100539.16
2023-05-09T11:44:28.059Z,100526.53
2023-05-09T11:45:32.111Z,100531.00
2023-05-09T11:46:34.544Z,100526.44
2023-05-09T11:47:38.333Z,100528.66
2023-05-09T11:48:42.401Z,100527.19
2023-05-09T11:49:45.061Z,100529.38
2023-05-09T11:50:48.097Z,100520.69
2023-05-09T11:51:50.823Z,100523.22
2023-05-09T11:52:54.182Z,100520.91
2023-05-09T11:53:56.455Z,100519.47
2023-05-09T11:54:59.630Z,100515.53
2023-05-09T11:56:05.982Z,100513.88
2023-05-09T11:57:08.814Z,100519.16
2023-05-09T11:58:11.251Z,100509.72
2023-05-09T11:59:15.968Z,100517.81
2023-05-09T12:00:20.855Z,100508.28
2023-05-09T12:01:23.500Z,100502.69
2023-05-09T12:02:25.885Z,100503.22
2023-05-09T12:03:28.456Z,100504.03
2023-05-09T12:04:32.294Z,100504.84
2023-05-09T12:05:34.998Z,100507.66
2023-05-09T12:06:37.902Z,100502.91
2023-05-09T12:07:41.395Z,100488.59
2023-05-09T12:08:45.165Z,100492.22
2023-05-09T12:09:49.751Z,100497.81
2023-05-09T12:10:52.006Z,100492.53
2023-05-09T12:11:54.237Z,100496.28
2023-05-09T12:12:57.294Z,100501.88
2023-05-09T12:13:59.670Z,100485.09
2023-05-09T12:15:08.517Z,100496.28
2023-05-09T12:16:10.833Z,100486.72
2023-05-09T12:17:13.150Z,100490.03
2023-05-09T12:18:20.778Z,100477.19
2023-05-09T12:19:24.568Z,100478.03
2023-05-09T12:20:40.871Z,100483.63
2023-05-09T12:21:44.722Z,100483.63